St.vasilios — A8UP7 — position and weather

sailwx.info

Track history (hours):
 
Tides and Currents Weather Stations Pressure Air Temp Water Temp Dewpoint Dewpoint Depression Visibility Wind Speed Wind Dir Waves Ship Positions

St.vasilios

Last reported at 2014-Jul-22 16:16 UTC. Time now 2014-Jul-22 19:38 UTC.
Position N 36°51' E 005°49'.

Length 224 m; draft 11.7 m.

Type: Cargo ship. MMSI: 636014536.

Date/timePositionNaut miles runAvg speedWind from/ knotsBaromVisibWave heightAir tempDewpointWater temp
2014-Jul-22 16:16N 36°51' E 005°49'  
2014-Jul-18 20:07N 36°51' E 005°49'0 0.0
2014-Jul-18 18:07N 36°51' E 005°49'0 0.0
2014-Jul-18 17:19N 36°51' E 005°49'0 0.0
2014-Jul-18 16:13N 36°51' E 005°49'4 1.3
2014-Jul-18 13:19N 36°53' E 005°45'7 9.6
2014-Jul-18 12:33N 36°56' E 005°36'1211.5
2014-Jul-18 11:29N 36°60' E 005°22'1111.8
2014-Jul-18 10:33N 37°03' E 005°08'1111.6
2014-Jul-18 09:34N 37°07' E 004°55'1211.6
2014-Jul-18 08:33N 37°10' E 004°41'1211.5
2014-Jul-18 07:33N 37°13' E 004°27'1111.4
2014-Jul-18 06:33N 37°15' E 004°13'9 9.2
2014-Jul-18 05:33N 37°19' E 004°03'1211.7
2014-Jul-18 04:33N 37°18' E 003°48'1211.8
2014-Jul-18 03:33N 37°15' E 003°34'1111.5
2014-Jul-18 02:34N 37°13' E 003°20'1111.3
2014-Jul-18 01:33N 37°10' E 003°06'1212.0
2014-Jul-18 00:32N 37°08' E 002°51'1211.9
2014-Jul-17 23:33N 37°05' E 002°36'1211.9
2014-Jul-17 22:31N 37°03' E 002°21'1111.8
2014-Jul-17 21:33N 37°00' E 002°07'1111.2
2014-Jul-17 20:33N 36°58' E 001°54'1210.9
2014-Jul-17 19:29N 36°55' E 001°39'1410.7
2014-Jul-17 18:12N 36°52' E 001°23'710.8
2014-Jul-17 17:33N 36°51' E 001°14'3411.0
2014-Jul-17 14:27N 36°43' E 000°33'1611.5
2014-Jul-17 13:06N 36°40' E 000°14'711.4
2014-Jul-17 12:32N 36°39' E 000°06'2311.5
2014-Jul-17 10:32N 36°34' W 000°22'5610.8
2014-Jul-17 05:18N 36°22' W 001°31'2111.0
2014-Jul-17 03:24N 36°17' W 001°56'27411.0
2014-Jul-16 02:33N 35°52' W 007°34'1311.4
2014-Jul-16 01:25N 35°52' W 007°50'1011.6
2014-Jul-16 00:33N 35°51' W 008°02'1311.7
2014-Jul-15 23:27N 35°51' W 008°18'1511.5
2014-Jul-15 22:07N 35°51' W 008°37'611.4
2014-Jul-15 21:33N 35°51' W 008°45'1111.3
2014-Jul-15 20:33N 35°51' W 008°59'1611.2
2014-Jul-15 19:07N 35°51' W 009°19'611.1
2014-Jul-15 18:33N 35°50' W 009°27'1111.1
2014-Jul-15 17:33N 35°50' W 009°40'1511.1
2014-Jul-15 16:15N 35°50' W 009°58'  
Track history (hours):
 
Tides and Currents Weather Stations Pressure Air Temp Water Temp Dewpoint Dewpoint Depression Visibility Wind Speed Wind Dir Waves Ship Positions

St.vasilios

Last reported at 2014-Jul-22 16:16 UTC. Time now 2014-Jul-22 19:38 UTC.
Position N 36°51' E 005°49'.

Length 224 m; draft 11.7 m.

Type: Cargo ship. MMSI: 636014536.

Date/timePositionNaut miles runAvg speedWind from/ knotsBaromVisibWave heightAir tempDewpointWater temp
2014-Jul-22 16:16N 36°51' E 005°49'  
2014-Jul-18 20:07N 36°51' E 005°49'0 0.0
2014-Jul-18 18:07N 36°51' E 005°49'0 0.0
2014-Jul-18 17:19N 36°51' E 005°49'0 0.0
2014-Jul-18 16:13N 36°51' E 005°49'4 1.3
2014-Jul-18 13:19N 36°53' E 005°45'7 9.6
2014-Jul-18 12:33N 36°56' E 005°36'1211.5
2014-Jul-18 11:29N 36°60' E 005°22'1111.8
2014-Jul-18 10:33N 37°03' E 005°08'1111.6
2014-Jul-18 09:34N 37°07' E 004°55'1211.6
2014-Jul-18 08:33N 37°10' E 004°41'1211.5
2014-Jul-18 07:33N 37°13' E 004°27'1111.4
2014-Jul-18 06:33N 37°15' E 004°13'9 9.2
2014-Jul-18 05:33N 37°19' E 004°03'1211.7
2014-Jul-18 04:33N 37°18' E 003°48'1211.8
2014-Jul-18 03:33N 37°15' E 003°34'1111.5
2014-Jul-18 02:34N 37°13' E 003°20'1111.3
2014-Jul-18 01:33N 37°10' E 003°06'1212.0
2014-Jul-18 00:32N 37°08' E 002°51'1211.9
2014-Jul-17 23:33N 37°05' E 002°36'1211.9
2014-Jul-17 22:31N 37°03' E 002°21'1111.8
2014-Jul-17 21:33N 37°00' E 002°07'1111.2
2014-Jul-17 20:33N 36°58' E 001°54'1210.9
2014-Jul-17 19:29N 36°55' E 001°39'1410.7
2014-Jul-17 18:12N 36°52' E 001°23'710.8
2014-Jul-17 17:33N 36°51' E 001°14'3411.0
2014-Jul-17 14:27N 36°43' E 000°33'1611.5
2014-Jul-17 13:06N 36°40' E 000°14'711.4
2014-Jul-17 12:32N 36°39' E 000°06'2311.5
2014-Jul-17 10:32N 36°34' W 000°22'5610.8
2014-Jul-17 05:18N 36°22' W 001°31'2111.0
2014-Jul-17 03:24N 36°17' W 001°56'27411.0
2014-Jul-16 02:33N 35°52' W 007°34'1311.4
2014-Jul-16 01:25N 35°52' W 007°50'1011.6
2014-Jul-16 00:33N 35°51' W 008°02'1311.7
2014-Jul-15 23:27N 35°51' W 008°18'1511.5
2014-Jul-15 22:07N 35°51' W 008°37'611.4
2014-Jul-15 21:33N 35°51' W 008°45'1111.3
2014-Jul-15 20:33N 35°51' W 008°59'1611.2
2014-Jul-15 19:07N 35°51' W 009°19'611.1
2014-Jul-15 18:33N 35°50' W 009°27'1111.1
2014-Jul-15 17:33N 35°50' W 009°40'1511.1
2014-Jul-15 16:15N 35°50' W 009°58'  

Dump ship's entire track history